sensor_id;sensor_type;location;lat;lon;timestamp;P1;durP1;ratioP1;P2;durP2;ratioP2
9188;SDS011;34313;50.780;6.084;2022-07-18T00:01:28;12.47;;;2.70;;
9188;SDS011;34313;50.780;6.084;2022-07-18T00:03:54;9.10;;;2.47;;
9188;SDS011;34313;50.780;6.084;2022-07-18T00:06:19;3.77;;;2.30;;
9188;SDS011;34313;50.780;6.084;2022-07-18T00:08:45;4.27;;;2.30;;
9188;SDS011;34313;50.780;6.084;2022-07-18T00:11:10;9.57;;;2.67;;
9188;SDS011;34313;50.780;6.084;2022-07-18T00:13:36;7.83;;;2.67;;
9188;SDS011;34313;50.780;6.084;2022-07-18T00:16:01;3.50;;;2.17;;
9188;SDS011;34313;50.780;6.084;2022-07-18T00:18:26;8.70;;;2.30;;
9188;SDS011;34313;50.780;6.084;2022-07-18T00:20:52;3.90;;;2.33;;
9188;SDS011;34313;50.780;6.084;2022-07-18T00:23:17;3.93;;;2.10;;
9188;SDS011;34313;50.780;6.084;2022-07-18T00:25:43;5.37;;;2.33;;
9188;SDS011;34313;50.780;6.084;2022-07-18T00:28:08;8.37;;;2.33;;
9188;SDS011;34313;50.780;6.084;2022-07-18T00:30:36;6.63;;;2.13;;
9188;SDS011;34313;50.780;6.084;2022-07-18T00:33:01;4.93;;;2.27;;
9188;SDS011;34313;50.780;6.084;2022-07-18T00:35:26;2.77;;;1.90;;
9188;SDS011;34313;50.780;6.084;2022-07-18T00:37:52;3.93;;;2.20;;
9188;SDS011;34313;50.780;6.084;2022-07-18T00:40:17;9.00;;;2.90;;
9188;SDS011;34313;50.780;6.084;2022-07-18T00:42:42;4.33;;;2.37;;
9188;SDS011;34313;50.780;6.084;2022-07-18T00:45:08;4.70;;;2.10;;
9188;SDS011;34313;50.780;6.084;2022-07-18T00:47:34;3.50;;;2.33;;
9188;SDS011;34313;50.780;6.084;2022-07-18T00:49:59;7.50;;;2.40;;
9188;SDS011;34313;50.780;6.084;2022-07-18T00:52:27;5.33;;;2.73;;
9188;SDS011;34313;50.780;6.084;2022-07-18T00:54:52;5.77;;;2.67;;
9188;SDS011;34313;50.780;6.084;2022-07-18T00:57:17;3.10;;;2.30;;
9188;SDS011;34313;50.780;6.084;2022-07-18T00:59:43;3.13;;;2.40;;
9188;SDS011;34313;50.780;6.084;2022-07-18T01:02:27;4.90;;;2.30;;
9188;SDS011;34313;50.780;6.084;2022-07-18T01:04:53;5.87;;;2.63;;
9188;SDS011;34313;50.780;6.084;2022-07-18T01:07:19;4.93;;;2.23;;
9188;SDS011;34313;50.780;6.084;2022-07-18T01:09:45;4.10;;;2.30;;
9188;SDS011;34313;50.780;6.084;2022-07-18T01:12:10;5.70;;;2.80;;
9188;SDS011;34313;50.780;6.084;2022-07-18T01:14:36;4.23;;;2.40;;
9188;SDS011;34313;50.780;6.084;2022-07-18T01:17:02;3.50;;;2.80;;
9188;SDS011;34313;50.780;6.084;2022-07-18T01:19:27;4.83;;;3.00;;
9188;SDS011;34313;50.780;6.084;2022-07-18T01:21:53;3.53;;;2.20;;
9188;SDS011;34313;50.780;6.084;2022-07-18T01:24:18;5.00;;;2.40;;
9188;SDS011;34313;50.780;6.084;2022-07-18T01:26:44;6.23;;;2.93;;
9188;SDS011;34313;50.780;6.084;2022-07-18T01:29:09;5.33;;;2.80;;
9188;SDS011;34313;50.780;6.084;2022-07-18T01:31:34;4.73;;;2.70;;
9188;SDS011;34313;50.780;6.084;2022-07-18T01:34:00;4.40;;;2.30;;
9188;SDS011;34313;50.780;6.084;2022-07-18T01:36:27;3.50;;;2.43;;
9188;SDS011;34313;50.780;6.084;2022-07-18T01:38:52;7.17;;;2.90;;
9188;SDS011;34313;50.780;6.084;2022-07-18T01:41:18;5.87;;;2.93;;
9188;SDS011;34313;50.780;6.084;2022-07-18T01:43:43;5.50;;;2.27;;
9188;SDS011;34313;50.780;6.084;2022-07-18T01:46:09;5.53;;;2.80;;
9188;SDS011;34313;50.780;6.084;2022-07-18T01:48:36;6.53;;;2.50;;
9188;SDS011;34313;50.780;6.084;2022-07-18T01:51:03;3.90;;;2.40;;
9188;SDS011;34313;50.780;6.084;2022-07-18T01:53:28;4.57;;;2.30;;
9188;SDS011;34313;50.780;6.084;2022-07-18T01:55:54;3.10;;;2.10;;
9188;SDS011;34313;50.780;6.084;2022-07-18T01:58:19;6.80;;;2.30;;
9188;SDS011;34313;50.780;6.084;2022-07-18T02:00:44;5.13;;;2.53;;
9188;SDS011;34313;50.780;6.084;2022-07-18T02:03:10;5.57;;;2.03;;
9188;SDS011;34313;50.780;6.084;2022-07-18T02:05:35;5.37;;;2.70;;
9188;SDS011;34313;50.780;6.084;2022-07-18T02:08:00;4.00;;;2.40;;
9188;SDS011;34313;50.780;6.084;2022-07-18T02:10:26;3.73;;;2.17;;
9188;SDS011;34313;50.780;6.084;2022-07-18T02:12:51;3.63;;;2.13;;
9188;SDS011;34313;50.780;6.084;2022-07-18T02:15:17;5.30;;;2.20;;
9188;SDS011;34313;50.780;6.084;2022-07-18T02:17:43;5.70;;;2.90;;
9188;SDS011;34313;50.780;6.084;2022-07-18T02:20:09;4.07;;;2.63;;
9188;SDS011;34313;50.780;6.084;2022-07-18T02:22:36;5.93;;;2.80;;
9188;SDS011;34313;50.780;6.084;2022-07-18T02:25:02;4.70;;;2.90;;
9188;SDS011;34313;50.780;6.084;2022-07-18T02:27:29;3.30;;;2.37;;
9188;SDS011;34313;50.780;6.084;2022-07-18T02:29:54;6.30;;;2.97;;
9188;SDS011;34313;50.780;6.084;2022-07-18T02:32:19;6.17;;;2.50;;
9188;SDS011;34313;50.780;6.084;2022-07-18T02:34:47;4.50;;;2.80;;
9188;SDS011;34313;50.780;6.084;2022-07-18T02:37:12;5.80;;;2.53;;
9188;SDS011;34313;50.780;6.084;2022-07-18T02:39:38;6.00;;;3.20;;
9188;SDS011;34313;50.780;6.084;2022-07-18T02:42:03;3.90;;;2.27;;
9188;SDS011;34313;50.780;6.084;2022-07-18T02:44:29;3.77;;;1.97;;
9188;SDS011;34313;50.780;6.084;2022-07-18T02:46:54;5.47;;;2.63;;
9188;SDS011;34313;50.780;6.084;2022-07-18T02:49:20;5.13;;;2.80;;
9188;SDS011;34313;50.780;6.084;2022-07-18T02:52:02;6.37;;;2.70;;
9188;SDS011;34313;50.780;6.084;2022-07-18T02:54:31;4.97;;;2.97;;
9188;SDS011;34313;50.780;6.084;2022-07-18T02:56:58;4.13;;;2.30;;
9188;SDS011;34313;50.780;6.084;2022-07-18T02:59:24;4.20;;;2.60;;
9188;SDS011;34313;50.780;6.084;2022-07-18T03:01:50;3.00;;;2.03;;
9188;SDS011;34313;50.780;6.084;2022-07-18T03:04:16;3.73;;;2.10;;
9188;SDS011;34313;50.780;6.084;2022-07-18T03:06:43;8.10;;;2.50;;
9188;SDS011;34313;50.780;6.084;2022-07-18T03:09:10;3.63;;;2.33;;
9188;SDS011;34313;50.780;6.084;2022-07-18T03:11:35;11.13;;;2.53;;
9188;SDS011;34313;50.780;6.084;2022-07-18T03:14:01;4.20;;;2.40;;
9188;SDS011;34313;50.780;6.084;2022-07-18T03:16:26;3.30;;;2.30;;
9188;SDS011;34313;50.780;6.084;2022-07-18T03:18:51;3.40;;;2.20;;
9188;SDS011;34313;50.780;6.084;2022-07-18T03:21:17;4.13;;;2.60;;
9188;SDS011;34313;50.780;6.084;2022-07-18T03:23:42;2.90;;;2.10;;
9188;SDS011;34313;50.780;6.084;2022-07-18T03:26:08;7.23;;;2.27;;
9188;SDS011;34313;50.780;6.084;2022-07-18T03:28:33;4.90;;;2.70;;
9188;SDS011;34313;50.780;6.084;2022-07-18T03:30:58;3.93;;;2.00;;
9188;SDS011;34313;50.780;6.084;2022-07-18T03:33:24;3.20;;;2.63;;
9188;SDS011;34313;50.780;6.084;2022-07-18T03:35:50;7.77;;;2.70;;
9188;SDS011;34313;50.780;6.084;2022-07-18T03:38:16;9.50;;;2.20;;
9188;SDS011;34313;50.780;6.084;2022-07-18T03:40:41;3.90;;;2.27;;
9188;SDS011;34313;50.780;6.084;2022-07-18T03:43:06;3.70;;;2.20;;
9188;SDS011;34313;50.780;6.084;2022-07-18T03:45:32;4.57;;;2.03;;
9188;SDS011;34313;50.780;6.084;2022-07-18T03:47:57;5.27;;;2.80;;
9188;SDS011;34313;50.780;6.084;2022-07-18T03:50:22;4.40;;;2.10;;
9188;SDS011;34313;50.780;6.084;2022-07-18T03:52:48;3.20;;;2.03;;
9188;SDS011;34313;50.780;6.084;2022-07-18T03:55:13;3.93;;;2.00;;
9188;SDS011;34313;50.780;6.084;2022-07-18T03:57:39;3.23;;;1.97;;
9188;SDS011;34313;50.780;6.084;2022-07-18T04:00:05;4.33;;;2.30;;
9188;SDS011;34313;50.780;6.084;2022-07-18T04:02:37;3.70;;;2.23;;
9188;SDS011;34313;50.780;6.084;2022-07-18T04:05:03;1.70;;;1.53;;
9188;SDS011;34313;50.780;6.084;2022-07-18T04:07:29;4.30;;;2.10;;
9188;SDS011;34313;50.780;6.084;2022-07-18T04:09:54;2.93;;;2.03;;
9188;SDS011;34313;50.780;6.084;2022-07-18T04:12:19;3.90;;;2.20;;
9188;SDS011;34313;50.780;6.084;2022-07-18T04:14:45;5.20;;;2.20;;
9188;SDS011;34313;50.780;6.084;2022-07-18T04:17:10;4.57;;;2.00;;
9188;SDS011;34313;50.780;6.084;2022-07-18T04:19:36;3.83;;;2.33;;
9188;SDS011;34313;50.780;6.084;2022-07-18T04:22:01;3.80;;;2.40;;
9188;SDS011;34313;50.780;6.084;2022-07-18T04:24:26;3.40;;;1.93;;
9188;SDS011;34313;50.780;6.084;2022-07-18T04:26:52;4.60;;;2.30;;
9188;SDS011;34313;50.780;6.084;2022-07-18T04:29:17;2.80;;;2.20;;
9188;SDS011;34313;50.780;6.084;2022-07-18T04:31:42;4.47;;;2.33;;
9188;SDS011;34313;50.780;6.084;2022-07-18T04:34:08;2.70;;;2.10;;
9188;SDS011;34313;50.780;6.084;2022-07-18T04:36:33;4.07;;;2.07;;
9188;SDS011;34313;50.780;6.084;2022-07-18T04:38:58;3.77;;;2.33;;
9188;SDS011;34313;50.780;6.084;2022-07-18T04:41:24;4.77;;;1.83;;
9188;SDS011;34313;50.780;6.084;2022-07-18T04:43:50;6.00;;;2.23;;
9188;SDS011;34313;50.780;6.084;2022-07-18T04:46:16;2.90;;;2.20;;
9188;SDS011;34313;50.780;6.084;2022-07-18T04:48:42;2.70;;;2.00;;
9188;SDS011;34313;50.780;6.084;2022-07-18T04:51:07;4.27;;;2.57;;
9188;SDS011;34313;50.780;6.084;2022-07-18T04:53:33;4.10;;;2.47;;
9188;SDS011;34313;50.780;6.084;2022-07-18T04:55:58;3.87;;;2.33;;
9188;SDS011;34313;50.780;6.084;2022-07-18T04:58:24;3.17;;;2.20;;
9188;SDS011;34313;50.780;6.084;2022-07-18T05:00:49;5.27;;;2.60;;
9188;SDS011;34313;50.780;6.084;2022-07-18T05:03:14;4.27;;;2.10;;
9188;SDS011;34313;50.780;6.084;2022-07-18T05:05:40;3.00;;;2.40;;
9188;SDS011;34313;50.780;6.084;2022-07-18T05:08:05;4.20;;;2.37;;
9188;SDS011;34313;50.780;6.084;2022-07-18T05:10:31;4.43;;;2.67;;
9188;SDS011;34313;50.780;6.084;2022-07-18T05:12:57;3.67;;;2.03;;
9188;SDS011;34313;50.780;6.084;2022-07-18T05:15:23;7.53;;;2.40;;
9188;SDS011;34313;50.780;6.084;2022-07-18T05:17:49;3.17;;;1.67;;
9188;SDS011;34313;50.780;6.084;2022-07-18T05:20:16;3.40;;;1.93;;
9188;SDS011;34313;50.780;6.084;2022-07-18T05:22:43;2.80;;;2.00;;
9188;SDS011;34313;50.780;6.084;2022-07-18T05:25:09;3.40;;;2.00;;
9188;SDS011;34313;50.780;6.084;2022-07-18T05:27:35;6.00;;;2.20;;
9188;SDS011;34313;50.780;6.084;2022-07-18T05:30:02;4.35;;;2.47;;
9188;SDS011;34313;50.780;6.084;2022-07-18T05:32:30;4.55;;;2.40;;
9188;SDS011;34313;50.780;6.084;2022-07-18T05:34:55;4.07;;;2.10;;
9188;SDS011;34313;50.780;6.084;2022-07-18T05:37:21;2.80;;;2.05;;
9188;SDS011;34313;50.780;6.084;2022-07-18T05:39:46;2.80;;;1.95;;
9188;SDS011;34313;50.780;6.084;2022-07-18T05:42:12;6.78;;;2.50;;
9188;SDS011;34313;50.780;6.084;2022-07-18T05:44:37;4.13;;;2.28;;
9188;SDS011;34313;50.780;6.084;2022-07-18T05:47:03;3.05;;;2.15;;
9188;SDS011;34313;50.780;6.084;2022-07-18T05:49:28;7.40;;;2.30;;
9188;SDS011;34313;50.780;6.084;2022-07-18T05:51:54;6.30;;;2.42;;
9188;SDS011;34313;50.780;6.084;2022-07-18T05:54:19;4.85;;;2.28;;
9188;SDS011;34313;50.780;6.084;2022-07-18T05:56:46;2.95;;;1.92;;
9188;SDS011;34313;50.780;6.084;2022-07-18T05:59:12;3.80;;;1.90;;
9188;SDS011;34313;50.780;6.084;2022-07-18T06:01:38;5.70;;;1.60;;
9188;SDS011;34313;50.780;6.084;2022-07-18T06:04:03;3.88;;;1.55;;
9188;SDS011;34313;50.780;6.084;2022-07-18T06:06:29;3.38;;;2.13;;
9188;SDS011;34313;50.780;6.084;2022-07-18T06:08:55;4.70;;;2.28;;
9188;SDS011;34313;50.780;6.084;2022-07-18T06:11:20;4.72;;;1.98;;
9188;SDS011;34313;50.780;6.084;2022-07-18T06:13:45;2.65;;;1.88;;
9188;SDS011;34313;50.780;6.084;2022-07-18T06:16:11;6.82;;;2.35;;
9188;SDS011;34313;50.780;6.084;2022-07-18T06:18:36;6.60;;;2.25;;
9188;SDS011;34313;50.780;6.084;2022-07-18T06:21:02;3.75;;;1.90;;
9188;SDS011;34313;50.780;6.084;2022-07-18T06:23:28;5.05;;;2.15;;
9188;SDS011;34313;50.780;6.084;2022-07-18T06:25:54;5.57;;;2.40;;
9188;SDS011;34313;50.780;6.084;2022-07-18T06:28:20;4.75;;;2.20;;
9188;SDS011;34313;50.780;6.084;2022-07-18T06:30:45;2.35;;;1.77;;
9188;SDS011;34313;50.780;6.084;2022-07-18T06:33:10;2.92;;;1.60;;
9188;SDS011;34313;50.780;6.084;2022-07-18T06:35:38;2.47;;;2.17;;
9188;SDS011;34313;50.780;6.084;2022-07-18T06:38:04;3.08;;;2.03;;
9188;SDS011;34313;50.780;6.084;2022-07-18T06:40:30;4.25;;;1.85;;
9188;SDS011;34313;50.780;6.084;2022-07-18T06:42:55;3.25;;;1.90;;
9188;SDS011;34313;50.780;6.084;2022-07-18T06:45:21;2.83;;;1.83;;
9188;SDS011;34313;50.780;6.084;2022-07-18T06:47:46;6.63;;;1.65;;
9188;SDS011;34313;50.780;6.084;2022-07-18T06:50:12;3.63;;;2.10;;
9188;SDS011;34313;50.780;6.084;2022-07-18T06:52:39;2.28;;;1.50;;
9188;SDS011;34313;50.780;6.084;2022-07-18T06:55:06;2.00;;;1.30;;
9188;SDS011;34313;50.780;6.084;2022-07-18T06:57:32;3.05;;;1.40;;
9188;SDS011;34313;50.780;6.084;2022-07-18T06:59:57;1.95;;;1.48;;
9188;SDS011;34313;50.780;6.084;2022-07-18T07:02:23;1.75;;;1.30;;
9188;SDS011;34313;50.780;6.084;2022-07-18T07:04:48;2.50;;;1.60;;
9188;SDS011;34313;50.780;6.084;2022-07-18T07:07:14;5.72;;;1.70;;
9188;SDS011;34313;50.780;6.084;2022-07-18T07:09:39;5.28;;;1.58;;
9188;SDS011;34313;50.780;6.084;2022-07-18T07:12:04;1.80;;;1.38;;
9188;SDS011;34313;50.780;6.084;2022-07-18T07:14:30;2.40;;;1.40;;
9188;SDS011;34313;50.780;6.084;2022-07-18T07:16:55;2.20;;;1.20;;
9188;SDS011;34313;50.780;6.084;2022-07-18T07:19:21;4.57;;;1.08;;
9188;SDS011;34313;50.780;6.084;2022-07-18T07:21:46;2.28;;;1.40;;
9188;SDS011;34313;50.780;6.084;2022-07-18T07:24:11;2.35;;;1.27;;
9188;SDS011;34313;50.780;6.084;2022-07-18T07:26:37;5.05;;;1.27;;
9188;SDS011;34313;50.780;6.084;2022-07-18T07:29:02;2.47;;;1.20;;
9188;SDS011;34313;50.780;6.084;2022-07-18T07:31:28;1.40;;;1.00;;
9188;SDS011;34313;50.780;6.084;2022-07-18T07:33:53;3.25;;;1.92;;
9188;SDS011;34313;50.780;6.084;2022-07-18T07:36:19;2.67;;;1.10;;
9188;SDS011;34313;50.780;6.084;2022-07-18T07:38:46;2.17;;;0.90;;
9188;SDS011;34313;50.780;6.084;2022-07-18T07:41:11;4.13;;;1.75;;
9188;SDS011;34313;50.780;6.084;2022-07-18T07:43:38;4.35;;;1.45;;
9188;SDS011;34313;50.780;6.084;2022-07-18T07:46:04;2.13;;;1.55;;
9188;SDS011;34313;50.780;6.084;2022-07-18T07:48:29;2.33;;;1.40;;
9188;SDS011;34313;50.780;6.084;2022-07-18T07:50:55;6.18;;;1.70;;
9188;SDS011;34313;50.780;6.084;2022-07-18T07:53:21;5.10;;;1.83;;
9188;SDS011;34313;50.780;6.084;2022-07-18T07:55:47;3.13;;;1.55;;
9188;SDS011;34313;50.780;6.084;2022-07-18T07:58:12;5.03;;;1.85;;
9188;SDS011;34313;50.780;6.084;2022-07-18T08:00:38;3.25;;;2.00;;
9188;SDS011;34313;50.780;6.084;2022-07-18T08:03:04;2.33;;;1.77;;
9188;SDS011;34313;50.780;6.084;2022-07-18T08:05:32;2.15;;;1.95;;
9188;SDS011;34313;50.780;6.084;2022-07-18T08:07:59;2.15;;;1.80;;
9188;SDS011;34313;50.780;6.084;2022-07-18T08:10:25;3.70;;;1.83;;
9188;SDS011;34313;50.780;6.084;2022-07-18T08:12:51;2.47;;;1.67;;
9188;SDS011;34313;50.780;6.084;2022-07-18T08:15:17;3.08;;;2.00;;
9188;SDS011;34313;50.780;6.084;2022-07-18T08:17:42;2.15;;;1.70;;
9188;SDS011;34313;50.780;6.084;2022-07-18T08:20:08;3.78;;;1.73;;
9188;SDS011;34313;50.780;6.084;2022-07-18T08:22:34;2.00;;;1.80;;
9188;SDS011;34313;50.780;6.084;2022-07-18T08:25:00;2.88;;;1.80;;
9188;SDS011;34313;50.780;6.084;2022-07-18T08:27:27;7.35;;;3.10;;
9188;SDS011;34313;50.780;6.084;2022-07-18T08:29:53;6.47;;;2.20;;
9188;SDS011;34313;50.780;6.084;2022-07-18T08:32:18;2.40;;;1.65;;
9188;SDS011;34313;50.780;6.084;2022-07-18T08:34:43;1.73;;;1.63;;
9188;SDS011;34313;50.780;6.084;2022-07-18T08:37:09;2.63;;;1.70;;
9188;SDS011;34313;50.780;6.084;2022-07-18T08:39:34;2.05;;;1.67;;
9188;SDS011;34313;50.780;6.084;2022-07-18T08:42:00;2.40;;;1.77;;
9188;SDS011;34313;50.780;6.084;2022-07-18T08:44:29;3.97;;;2.00;;
9188;SDS011;34313;50.780;6.084;2022-07-18T08:46:57;2.00;;;1.67;;
9188;SDS011;34313;50.780;6.084;2022-07-18T08:49:24;2.47;;;1.90;;
9188;SDS011;34313;50.780;6.084;2022-07-18T08:51:51;2.20;;;1.90;;
9188;SDS011;34313;50.780;6.084;2022-07-18T08:54:16;1.83;;;1.40;;
9188;SDS011;34313;50.780;6.084;2022-07-18T08:56:42;2.92;;;1.40;;
9188;SDS011;34313;50.780;6.084;2022-07-18T08:59:07;2.53;;;1.48;;
9188;SDS011;34313;50.780;6.084;2022-07-18T09:01:33;1.40;;;1.30;;
9188;SDS011;34313;50.780;6.084;2022-07-18T09:03:59;2.78;;;1.25;;
9188;SDS011;34313;50.780;6.084;2022-07-18T09:09:08;2.67;;;1.45;;
9188;SDS011;34313;50.780;6.084;2022-07-18T09:11:36;1.63;;;1.48;;
9188;SDS011;34313;50.780;6.084;2022-07-18T09:14:02;5.60;;;1.70;;
9188;SDS011;34313;50.780;6.084;2022-07-18T09:16:27;1.35;;;1.20;;
9188;SDS011;34313;50.780;6.084;2022-07-18T09:18:53;3.58;;;1.20;;
9188;SDS011;34313;50.780;6.084;2022-07-18T09:21:19;1.45;;;1.10;;
9188;SDS011;34313;50.780;6.084;2022-07-18T09:23:47;1.60;;;1.42;;
9188;SDS011;34313;50.780;6.084;2022-07-18T09:26:17;5.03;;;1.20;;
9188;SDS011;34313;50.780;6.084;2022-07-18T09:28:59;4.72;;;1.40;;
9188;SDS011;34313;50.780;6.084;2022-07-18T09:31:24;4.38;;;1.23;;
9188;SDS011;34313;50.780;6.084;2022-07-18T09:33:53;2.85;;;1.30;;
9188;SDS011;34313;50.780;6.084;2022-07-18T09:36:19;4.25;;;1.42;;
9188;SDS011;34313;50.780;6.084;2022-07-18T09:38:45;1.60;;;1.23;;
9188;SDS011;34313;50.780;6.084;2022-07-18T09:41:11;1.75;;;1.20;;
9188;SDS011;34313;50.780;6.084;2022-07-18T09:43:37;1.23;;;1.10;;
9188;SDS011;34313;50.780;6.084;2022-07-18T09:46:03;1.40;;;1.30;;
9188;SDS011;34313;50.780;6.084;2022-07-18T09:48:29;1.83;;;1.48;;
9188;SDS011;34313;50.780;6.084;2022-07-18T09:50:58;2.45;;;1.30;;
9188;SDS011;34313;50.780;6.084;2022-07-18T09:53:26;3.15;;;1.67;;
9188;SDS011;34313;50.780;6.084;2022-07-18T09:56:13;1.60;;;1.30;;
9188;SDS011;34313;50.780;6.084;2022-07-18T09:58:52;7.00;;;1.60;;
9188;SDS011;34313;50.780;6.084;2022-07-18T10:01:18;6.47;;;1.70;;
9188;SDS011;34313;50.780;6.084;2022-07-18T10:03:44;4.32;;;1.50;;
9188;SDS011;34313;50.780;6.084;2022-07-18T10:06:09;5.65;;;1.60;;
9188;SDS011;34313;50.780;6.084;2022-07-18T10:08:35;3.15;;;1.13;;
9188;SDS011;34313;50.780;6.084;2022-07-18T10:11:02;1.48;;;1.27;;
9188;SDS011;34313;50.780;6.084;2022-07-18T10:13:29;3.47;;;1.40;;
9188;SDS011;34313;50.780;6.084;2022-07-18T10:15:57;2.53;;;1.60;;
9188;SDS011;34313;50.780;6.084;2022-07-18T10:18:23;3.20;;;1.67;;
9188;SDS011;34313;50.780;6.084;2022-07-18T10:31:20;3.03;;;1.52;;
9188;SDS011;34313;50.780;6.084;2022-07-18T10:33:50;1.67;;;1.42;;
9188;SDS011;34313;50.780;6.084;2022-07-18T10:36:20;1.80;;;1.40;;
9188;SDS011;34313;50.780;6.084;2022-07-18T10:57:41;2.30;;;1.40;;
9188;SDS011;34313;50.780;6.084;2022-07-18T11:00:35;2.78;;;1.50;;
9188;SDS011;34313;50.780;6.084;2022-07-18T11:03:10;12.25;;;1.73;;
9188;SDS011;34313;50.780;6.084;2022-07-18T11:05:41;4.13;;;1.50;;
9188;SDS011;34313;50.780;6.084;2022-07-18T11:15:56;2.63;;;1.38;;
9188;SDS011;34313;50.780;6.084;2022-07-18T11:21:26;3.58;;;1.50;;
9188;SDS011;34313;50.780;6.084;2022-07-18T11:26:26;6.53;;;1.73;;
9188;SDS011;34313;50.780;6.084;2022-07-18T11:28:56;4.22;;;1.70;;
9188;SDS011;34313;50.780;6.084;2022-07-18T11:31:23;3.93;;;1.63;;
9188;SDS011;34313;50.780;6.084;2022-07-18T11:33:50;2.72;;;1.30;;
9188;SDS011;34313;50.780;6.084;2022-07-18T11:36:17;1.95;;;1.40;;
9188;SDS011;34313;50.780;6.084;2022-07-18T11:38:50;6.30;;;1.70;;
9188;SDS011;34313;50.780;6.084;2022-07-18T11:41:18;2.33;;;1.40;;
9188;SDS011;34313;50.780;6.084;2022-07-18T11:43:45;6.30;;;1.70;;
9188;SDS011;34313;50.780;6.084;2022-07-18T11:46:12;2.45;;;1.52;;
9188;SDS011;34313;50.780;6.084;2022-07-18T11:48:40;6.32;;;1.70;;
9188;SDS011;34313;50.780;6.084;2022-07-18T11:51:10;1.97;;;1.70;;
9188;SDS011;34313;50.780;6.084;2022-07-18T11:53:51;3.45;;;1.67;;
9188;SDS011;34313;50.780;6.084;2022-07-18T11:56:18;2.97;;;1.73;;
9188;SDS011;34313;50.780;6.084;2022-07-18T11:58:45;3.73;;;1.73;;
9188;SDS011;34313;50.780;6.084;2022-07-18T12:01:12;3.15;;;1.50;;
9188;SDS011;34313;50.780;6.084;2022-07-18T12:03:47;2.57;;;1.63;;
9188;SDS011;34313;50.780;6.084;2022-07-18T12:06:15;2.47;;;1.20;;
9188;SDS011;34313;50.780;6.084;2022-07-18T12:08:45;3.20;;;1.60;;
9188;SDS011;34313;50.780;6.084;2022-07-18T12:11:31;2.30;;;1.30;;
9188;SDS011;34313;50.780;6.084;2022-07-18T12:14:03;1.83;;;1.30;;
9188;SDS011;34313;50.780;6.084;2022-07-18T12:16:43;2.22;;;1.35;;
9188;SDS011;34313;50.780;6.084;2022-07-18T12:21:41;1.50;;;1.40;;
9188;SDS011;34313;50.780;6.084;2022-07-18T12:32:35;3.50;;;1.27;;
9188;SDS011;34313;50.780;6.084;2022-07-18T12:37:58;1.50;;;1.37;;
9188;SDS011;34313;50.780;6.084;2022-07-18T12:40:39;2.07;;;1.30;;
9188;SDS011;34313;50.780;6.084;2022-07-18T12:43:08;4.20;;;1.40;;
9188;SDS011;34313;50.780;6.084;2022-07-18T12:45:35;1.50;;;1.15;;
9188;SDS011;34313;50.780;6.084;2022-07-18T12:48:02;2.67;;;1.37;;
9188;SDS011;34313;50.780;6.084;2022-07-18T12:50:29;2.45;;;1.50;;
9188;SDS011;34313;50.780;6.084;2022-07-18T12:52:54;1.73;;;1.40;;
9188;SDS011;34313;50.780;6.084;2022-07-18T12:55:19;2.28;;;1.17;;
9188;SDS011;34313;50.780;6.084;2022-07-18T12:57:45;1.67;;;1.20;;
9188;SDS011;34313;50.780;6.084;2022-07-18T13:00:11;1.37;;;1.20;;
9188;SDS011;34313;50.780;6.084;2022-07-18T13:02:36;1.43;;;1.17;;
9188;SDS011;34313;50.780;6.084;2022-07-18T13:05:02;1.60;;;1.20;;
9188;SDS011;34313;50.780;6.084;2022-07-18T13:07:27;2.40;;;1.37;;
9188;SDS011;34313;50.780;6.084;2022-07-18T13:09:53;3.17;;;1.33;;
9188;SDS011;34313;50.780;6.084;2022-07-18T13:12:18;1.60;;;1.50;;
9188;SDS011;34313;50.780;6.084;2022-07-18T13:14:44;1.40;;;1.30;;
9188;SDS011;34313;50.780;6.084;2022-07-18T13:17:09;3.38;;;1.58;;
9188;SDS011;34313;50.780;6.084;2022-07-18T13:19:34;2.93;;;1.50;;
9188;SDS011;34313;50.780;6.084;2022-07-18T13:22:00;3.55;;;1.42;;
9188;SDS011;34313;50.780;6.084;2022-07-18T13:24:25;2.63;;;1.42;;
9188;SDS011;34313;50.780;6.084;2022-07-18T13:26:51;1.63;;;1.40;;
9188;SDS011;34313;50.780;6.084;2022-07-18T13:29:16;15.53;;;1.40;;
9188;SDS011;34313;50.780;6.084;2022-07-18T13:31:42;2.05;;;1.20;;
9188;SDS011;34313;50.780;6.084;2022-07-18T13:34:08;1.60;;;1.30;;
9188;SDS011;34313;50.780;6.084;2022-07-18T13:36:33;3.90;;;1.80;;
9188;SDS011;34313;50.780;6.084;2022-07-18T13:38:59;1.88;;;1.38;;
9188;SDS011;34313;50.780;6.084;2022-07-18T13:41:26;2.90;;;1.57;;
9188;SDS011;34313;50.780;6.084;2022-07-18T13:43:52;3.43;;;1.53;;
9188;SDS011;34313;50.780;6.084;2022-07-18T13:46:17;3.97;;;1.40;;
9188;SDS011;34313;50.780;6.084;2022-07-18T13:48:43;6.53;;;1.50;;
9188;SDS011;34313;50.780;6.084;2022-07-18T13:51:09;1.40;;;1.30;;
9188;SDS011;34313;50.780;6.084;2022-07-18T13:53:35;2.73;;;1.50;;
9188;SDS011;34313;50.780;6.084;2022-07-18T13:56:00;2.17;;;1.30;;
9188;SDS011;34313;50.780;6.084;2022-07-18T13:58:26;1.80;;;1.33;;
9188;SDS011;34313;50.780;6.084;2022-07-18T14:00:51;3.57;;;1.50;;
9188;SDS011;34313;50.780;6.084;2022-07-18T14:03:16;3.97;;;1.80;;
9188;SDS011;34313;50.780;6.084;2022-07-18T14:05:42;1.25;;;1.02;;
9188;SDS011;34313;50.780;6.084;2022-07-18T14:08:08;3.30;;;1.30;;
9188;SDS011;34313;50.780;6.084;2022-07-18T14:10:34;3.17;;;1.37;;
9188;SDS011;34313;50.780;6.084;2022-07-18T14:13:01;2.63;;;1.50;;
9188;SDS011;34313;50.780;6.084;2022-07-18T14:15:27;3.70;;;1.30;;
9188;SDS011;34313;50.780;6.084;2022-07-18T14:17:52;5.50;;;1.30;;
9188;SDS011;34313;50.780;6.084;2022-07-18T14:20:18;2.07;;;1.43;;
9188;SDS011;34313;50.780;6.084;2022-07-18T14:22:44;1.37;;;1.20;;
9188;SDS011;34313;50.780;6.084;2022-07-18T14:25:12;1.50;;;1.40;;
9188;SDS011;34313;50.780;6.084;2022-07-18T14:27:40;1.70;;;1.20;;
9188;SDS011;34313;50.780;6.084;2022-07-18T14:30:06;2.40;;;1.30;;
9188;SDS011;34313;50.780;6.084;2022-07-18T14:32:33;1.52;;;1.42;;
9188;SDS011;34313;50.780;6.084;2022-07-18T14:34:59;2.43;;;1.20;;
9188;SDS011;34313;50.780;6.084;2022-07-18T14:37:24;2.60;;;1.50;;
9188;SDS011;34313;50.780;6.084;2022-07-18T14:39:49;5.50;;;1.40;;
9188;SDS011;34313;50.780;6.084;2022-07-18T14:42:15;1.52;;;1.42;;
9188;SDS011;34313;50.780;6.084;2022-07-18T14:44:40;1.87;;;1.53;;
9188;SDS011;34313;50.780;6.084;2022-07-18T14:47:06;4.32;;;2.55;;
9188;SDS011;34313;50.780;6.084;2022-07-18T14:49:31;3.93;;;2.20;;
9188;SDS011;34313;50.780;6.084;2022-07-18T14:51:57;1.88;;;1.50;;
9188;SDS011;34313;50.780;6.084;2022-07-18T14:54:25;1.52;;;1.42;;
9188;SDS011;34313;50.780;6.084;2022-07-18T14:56:50;1.92;;;1.25;;
9188;SDS011;34313;50.780;6.084;2022-07-18T14:59:16;3.33;;;1.92;;
9188;SDS011;34313;50.780;6.084;2022-07-18T15:01:41;1.50;;;1.23;;
9188;SDS011;34313;50.780;6.084;2022-07-18T15:04:07;2.53;;;1.60;;
9188;SDS011;34313;50.780;6.084;2022-07-18T15:06:32;2.28;;;1.50;;
9188;SDS011;34313;50.780;6.084;2022-07-18T15:08:58;7.28;;;1.55;;
9188;SDS011;34313;50.780;6.084;2022-07-18T15:11:23;1.92;;;1.52;;
9188;SDS011;34313;50.780;6.084;2022-07-18T15:13:49;2.33;;;1.25;;
9188;SDS011;34313;50.780;6.084;2022-07-18T15:16:16;2.95;;;1.70;;
9188;SDS011;34313;50.780;6.084;2022-07-18T15:18:41;3.22;;;1.58;;
9188;SDS011;34313;50.780;6.084;2022-07-18T15:21:07;5.90;;;2.17;;
9188;SDS011;34313;50.780;6.084;2022-07-18T15:23:32;1.77;;;1.40;;
9188;SDS011;34313;50.780;6.084;2022-07-18T15:25:57;11.13;;;1.60;;
9188;SDS011;34313;50.780;6.084;2022-07-18T15:28:23;4.93;;;1.13;;
9188;SDS011;34313;50.780;6.084;2022-07-18T15:30:49;2.63;;;1.20;;
9188;SDS011;34313;50.780;6.084;2022-07-18T15:33:15;4.07;;;1.23;;
9188;SDS011;34313;50.780;6.084;2022-07-18T15:35:40;2.92;;;1.30;;
9188;SDS011;34313;50.780;6.084;2022-07-18T15:38:06;4.35;;;2.70;;
9188;SDS011;34313;50.780;6.084;2022-07-18T15:40:32;4.18;;;3.75;;
9188;SDS011;34313;50.780;6.084;2022-07-18T15:42:57;7.43;;;4.30;;
9188;SDS011;34313;50.780;6.084;2022-07-18T15:45:23;1.75;;;1.60;;
9188;SDS011;34313;50.780;6.084;2022-07-18T15:47:48;4.72;;;2.30;;
9188;SDS011;34313;50.780;6.084;2022-07-18T15:50:14;6.88;;;3.50;;
9188;SDS011;34313;50.780;6.084;2022-07-18T15:52:39;2.83;;;2.35;;
9188;SDS011;34313;50.780;6.084;2022-07-18T15:55:05;3.92;;;2.15;;